sensor_id;sensor_type;location;lat;lon;timestamp;P1;durP1;ratioP1;P2;durP2;ratioP2
11396;SDS011;5754;43.726;7.416;2022-07-10T00:01:08;7.00;;;2.97;;
11396;SDS011;5754;43.726;7.416;2022-07-10T00:03:42;4.00;;;2.70;;
11396;SDS011;5754;43.726;7.416;2022-07-10T00:06:19;4.68;;;2.40;;
11396;SDS011;5754;43.726;7.416;2022-07-10T00:08:53;4.80;;;2.60;;
11396;SDS011;5754;43.726;7.416;2022-07-10T00:11:28;3.92;;;2.65;;
11396;SDS011;5754;43.726;7.416;2022-07-10T00:14:02;5.20;;;2.70;;
11396;SDS011;5754;43.726;7.416;2022-07-10T00:16:37;4.62;;;2.65;;
11396;SDS011;5754;43.726;7.416;2022-07-10T00:19:11;5.82;;;2.53;;
11396;SDS011;5754;43.726;7.416;2022-07-10T00:21:46;5.15;;;2.55;;
11396;SDS011;5754;43.726;7.416;2022-07-10T00:24:20;3.10;;;2.70;;
11396;SDS011;5754;43.726;7.416;2022-07-10T00:26:54;5.05;;;2.65;;
11396;SDS011;5754;43.726;7.416;2022-07-10T00:29:29;5.07;;;2.33;;
11396;SDS011;5754;43.726;7.416;2022-07-10T00:32:03;3.42;;;2.80;;
11396;SDS011;5754;43.726;7.416;2022-07-10T00:34:38;3.45;;;2.78;;
11396;SDS011;5754;43.726;7.416;2022-07-10T00:39:55;6.07;;;2.85;;
11396;SDS011;5754;43.726;7.416;2022-07-10T00:42:30;4.32;;;2.83;;
11396;SDS011;5754;43.726;7.416;2022-07-10T00:45:05;6.45;;;2.67;;
11396;SDS011;5754;43.726;7.416;2022-07-10T00:47:39;4.35;;;2.50;;
11396;SDS011;5754;43.726;7.416;2022-07-10T00:50:14;5.25;;;2.58;;
11396;SDS011;5754;43.726;7.416;2022-07-10T00:52:48;5.72;;;2.75;;
11396;SDS011;5754;43.726;7.416;2022-07-10T00:55:23;3.55;;;2.80;;
11396;SDS011;5754;43.726;7.416;2022-07-10T00:57:58;3.10;;;2.50;;
11396;SDS011;5754;43.726;7.416;2022-07-10T01:00:32;4.18;;;2.62;;
11396;SDS011;5754;43.726;7.416;2022-07-10T01:03:07;3.92;;;2.60;;
11396;SDS011;5754;43.726;7.416;2022-07-10T01:05:41;5.87;;;2.92;;
11396;SDS011;5754;43.726;7.416;2022-07-10T01:08:17;2.67;;;2.42;;
11396;SDS011;5754;43.726;7.416;2022-07-10T01:10:51;6.35;;;2.85;;
11396;SDS011;5754;43.726;7.416;2022-07-10T01:13:26;6.47;;;2.72;;
11396;SDS011;5754;43.726;7.416;2022-07-10T01:16:00;3.22;;;2.40;;
11396;SDS011;5754;43.726;7.416;2022-07-10T01:18:35;6.22;;;2.70;;
11396;SDS011;5754;43.726;7.416;2022-07-10T01:21:28;5.20;;;2.75;;
11396;SDS011;5754;43.726;7.416;2022-07-10T01:24:05;4.72;;;2.35;;
11396;SDS011;5754;43.726;7.416;2022-07-10T01:26:40;3.20;;;2.70;;
11396;SDS011;5754;43.726;7.416;2022-07-10T01:29:16;4.28;;;2.70;;
11396;SDS011;5754;43.726;7.416;2022-07-10T01:31:51;6.05;;;2.83;;
11396;SDS011;5754;43.726;7.416;2022-07-10T01:34:29;4.55;;;2.70;;
11396;SDS011;5754;43.726;7.416;2022-07-10T01:37:03;4.60;;;2.72;;
11396;SDS011;5754;43.726;7.416;2022-07-10T01:39:40;5.07;;;2.90;;
11396;SDS011;5754;43.726;7.416;2022-07-10T01:42:14;5.50;;;3.28;;
11396;SDS011;5754;43.726;7.416;2022-07-10T01:44:48;5.60;;;2.92;;
11396;SDS011;5754;43.726;7.416;2022-07-10T01:47:23;5.90;;;2.85;;
11396;SDS011;5754;43.726;7.416;2022-07-10T01:49:59;5.93;;;2.87;;
11396;SDS011;5754;43.726;7.416;2022-07-10T01:52:34;4.30;;;2.70;;
11396;SDS011;5754;43.726;7.416;2022-07-10T01:55:09;6.40;;;3.08;;
11396;SDS011;5754;43.726;7.416;2022-07-10T01:57:44;4.10;;;2.47;;
11396;SDS011;5754;43.726;7.416;2022-07-10T02:00:18;4.22;;;2.67;;
11396;SDS011;5754;43.726;7.416;2022-07-10T02:02:53;3.97;;;2.53;;
11396;SDS011;5754;43.726;7.416;2022-07-10T02:05:47;4.65;;;2.80;;
11396;SDS011;5754;43.726;7.416;2022-07-10T02:08:22;4.03;;;2.70;;
11396;SDS011;5754;43.726;7.416;2022-07-10T02:10:58;3.72;;;2.55;;
11396;SDS011;5754;43.726;7.416;2022-07-10T02:13:33;3.75;;;2.83;;
11396;SDS011;5754;43.726;7.416;2022-07-10T02:16:07;4.12;;;2.83;;
11396;SDS011;5754;43.726;7.416;2022-07-10T02:18:42;3.85;;;2.87;;
11396;SDS011;5754;43.726;7.416;2022-07-10T02:21:16;4.72;;;2.60;;
11396;SDS011;5754;43.726;7.416;2022-07-10T02:23:51;3.47;;;2.72;;
11396;SDS011;5754;43.726;7.416;2022-07-10T02:26:26;4.03;;;2.70;;
11396;SDS011;5754;43.726;7.416;2022-07-10T02:29:00;3.58;;;2.83;;
11396;SDS011;5754;43.726;7.416;2022-07-10T02:31:35;3.53;;;2.47;;
11396;SDS011;5754;43.726;7.416;2022-07-10T02:34:13;3.95;;;2.72;;
11396;SDS011;5754;43.726;7.416;2022-07-10T02:36:49;4.57;;;2.70;;
11396;SDS011;5754;43.726;7.416;2022-07-10T02:39:24;5.20;;;2.75;;
11396;SDS011;5754;43.726;7.416;2022-07-10T02:41:59;2.75;;;2.55;;
11396;SDS011;5754;43.726;7.416;2022-07-10T02:44:34;3.10;;;2.80;;
11396;SDS011;5754;43.726;7.416;2022-07-10T02:47:08;4.20;;;2.60;;
11396;SDS011;5754;43.726;7.416;2022-07-10T02:49:43;3.28;;;2.47;;
11396;SDS011;5754;43.726;7.416;2022-07-10T02:52:17;4.05;;;2.72;;
11396;SDS011;5754;43.726;7.416;2022-07-10T02:54:51;4.62;;;2.90;;
11396;SDS011;5754;43.726;7.416;2022-07-10T02:57:26;4.20;;;2.75;;
11396;SDS011;5754;43.726;7.416;2022-07-10T03:00:02;4.15;;;2.60;;
11396;SDS011;5754;43.726;7.416;2022-07-10T03:02:37;4.68;;;3.00;;
11396;SDS011;5754;43.726;7.416;2022-07-10T03:05:11;4.12;;;2.72;;
11396;SDS011;5754;43.726;7.416;2022-07-10T03:07:46;4.50;;;2.70;;
11396;SDS011;5754;43.726;7.416;2022-07-10T03:10:21;5.37;;;2.72;;
11396;SDS011;5754;43.726;7.416;2022-07-10T03:12:56;3.33;;;2.40;;
11396;SDS011;5754;43.726;7.416;2022-07-10T03:15:30;4.07;;;2.60;;
11396;SDS011;5754;43.726;7.416;2022-07-10T03:18:05;4.35;;;2.92;;
11396;SDS011;5754;43.726;7.416;2022-07-10T03:20:39;4.18;;;2.60;;
11396;SDS011;5754;43.726;7.416;2022-07-10T03:23:14;2.85;;;2.60;;
11396;SDS011;5754;43.726;7.416;2022-07-10T03:25:48;3.17;;;2.72;;
11396;SDS011;5754;43.726;7.416;2022-07-10T03:28:27;3.40;;;2.80;;
11396;SDS011;5754;43.726;7.416;2022-07-10T03:31:01;5.70;;;2.90;;
11396;SDS011;5754;43.726;7.416;2022-07-10T03:33:36;3.30;;;2.50;;
11396;SDS011;5754;43.726;7.416;2022-07-10T03:36:10;4.43;;;2.53;;
11396;SDS011;5754;43.726;7.416;2022-07-10T03:38:47;7.12;;;2.78;;
11396;SDS011;5754;43.726;7.416;2022-07-10T03:41:21;5.72;;;2.58;;
11396;SDS011;5754;43.726;7.416;2022-07-10T03:43:57;5.68;;;2.83;;
11396;SDS011;5754;43.726;7.416;2022-07-10T03:46:32;3.50;;;2.78;;
11396;SDS011;5754;43.726;7.416;2022-07-10T03:49:06;4.68;;;2.80;;
11396;SDS011;5754;43.726;7.416;2022-07-10T03:51:41;2.80;;;2.60;;
11396;SDS011;5754;43.726;7.416;2022-07-10T03:54:15;4.50;;;2.62;;
11396;SDS011;5754;43.726;7.416;2022-07-10T03:56:50;4.32;;;2.50;;
11396;SDS011;5754;43.726;7.416;2022-07-10T03:59:44;4.07;;;2.70;;
11396;SDS011;5754;43.726;7.416;2022-07-10T04:02:18;4.95;;;2.83;;
11396;SDS011;5754;43.726;7.416;2022-07-10T04:04:53;3.47;;;2.60;;
11396;SDS011;5754;43.726;7.416;2022-07-10T04:07:29;3.95;;;2.42;;
11396;SDS011;5754;43.726;7.416;2022-07-10T04:10:04;3.95;;;2.50;;
11396;SDS011;5754;43.726;7.416;2022-07-10T04:12:38;3.62;;;2.20;;
11396;SDS011;5754;43.726;7.416;2022-07-10T04:15:12;4.15;;;2.58;;
11396;SDS011;5754;43.726;7.416;2022-07-10T04:17:48;3.83;;;2.67;;
11396;SDS011;5754;43.726;7.416;2022-07-10T04:20:22;3.67;;;2.37;;
11396;SDS011;5754;43.726;7.416;2022-07-10T04:22:58;4.55;;;2.70;;
11396;SDS011;5754;43.726;7.416;2022-07-10T04:25:33;2.92;;;2.55;;
11396;SDS011;5754;43.726;7.416;2022-07-10T04:28:07;6.05;;;2.87;;
11396;SDS011;5754;43.726;7.416;2022-07-10T04:30:42;4.15;;;2.67;;
11396;SDS011;5754;43.726;7.416;2022-07-10T04:33:17;7.05;;;3.03;;
11396;SDS011;5754;43.726;7.416;2022-07-10T04:35:51;5.30;;;2.87;;
11396;SDS011;5754;43.726;7.416;2022-07-10T04:38:26;4.45;;;2.72;;
11396;SDS011;5754;43.726;7.416;2022-07-10T04:41:00;4.40;;;2.55;;
11396;SDS011;5754;43.726;7.416;2022-07-10T04:43:34;5.03;;;2.75;;
11396;SDS011;5754;43.726;7.416;2022-07-10T04:46:09;4.50;;;2.70;;
11396;SDS011;5754;43.726;7.416;2022-07-10T04:48:43;5.93;;;2.72;;
11396;SDS011;5754;43.726;7.416;2022-07-10T04:51:18;3.67;;;2.92;;
11396;SDS011;5754;43.726;7.416;2022-07-10T04:53:52;5.70;;;2.78;;
11396;SDS011;5754;43.726;7.416;2022-07-10T04:56:26;4.22;;;2.35;;
11396;SDS011;5754;43.726;7.416;2022-07-10T04:59:01;4.20;;;2.58;;
11396;SDS011;5754;43.726;7.416;2022-07-10T05:01:35;4.70;;;2.80;;
11396;SDS011;5754;43.726;7.416;2022-07-10T05:04:12;3.17;;;2.50;;
11396;SDS011;5754;43.726;7.416;2022-07-10T05:06:47;4.60;;;3.25;;
11396;SDS011;5754;43.726;7.416;2022-07-10T05:09:21;5.60;;;3.15;;
11396;SDS011;5754;43.726;7.416;2022-07-10T05:11:56;3.62;;;2.70;;
11396;SDS011;5754;43.726;7.416;2022-07-10T05:14:31;5.93;;;2.67;;
11396;SDS011;5754;43.726;7.416;2022-07-10T05:17:08;2.85;;;2.35;;
11396;SDS011;5754;43.726;7.416;2022-07-10T05:19:42;3.85;;;2.40;;
11396;SDS011;5754;43.726;7.416;2022-07-10T05:22:17;4.70;;;2.58;;
11396;SDS011;5754;43.726;7.416;2022-07-10T05:24:51;3.97;;;2.62;;
11396;SDS011;5754;43.726;7.416;2022-07-10T05:27:26;4.72;;;2.72;;
11396;SDS011;5754;43.726;7.416;2022-07-10T05:30:00;3.08;;;2.53;;
11396;SDS011;5754;43.726;7.416;2022-07-10T05:32:41;4.60;;;2.50;;
11396;SDS011;5754;43.726;7.416;2022-07-10T05:35:16;6.18;;;2.55;;
11396;SDS011;5754;43.726;7.416;2022-07-10T05:37:51;3.22;;;2.47;;
11396;SDS011;5754;43.726;7.416;2022-07-10T05:40:26;2.85;;;2.40;;
11396;SDS011;5754;43.726;7.416;2022-07-10T05:43:01;3.40;;;2.50;;
11396;SDS011;5754;43.726;7.416;2022-07-10T05:45:35;3.20;;;2.30;;
11396;SDS011;5754;43.726;7.416;2022-07-10T05:48:10;3.00;;;2.55;;
11396;SDS011;5754;43.726;7.416;2022-07-10T05:50:44;2.65;;;2.22;;
11396;SDS011;5754;43.726;7.416;2022-07-10T05:53:19;2.70;;;2.40;;
11396;SDS011;5754;43.726;7.416;2022-07-10T05:55:53;2.72;;;2.37;;
11396;SDS011;5754;43.726;7.416;2022-07-10T05:58:28;2.85;;;2.50;;
11396;SDS011;5754;43.726;7.416;2022-07-10T06:01:02;5.22;;;2.75;;
11396;SDS011;5754;43.726;7.416;2022-07-10T06:03:37;2.95;;;2.50;;
11396;SDS011;5754;43.726;7.416;2022-07-10T06:06:11;4.32;;;2.50;;
11396;SDS011;5754;43.726;7.416;2022-07-10T06:08:52;2.78;;;2.58;;
11396;SDS011;5754;43.726;7.416;2022-07-10T06:11:27;4.62;;;2.47;;
11396;SDS011;5754;43.726;7.416;2022-07-10T06:14:03;3.35;;;2.60;;
11396;SDS011;5754;43.726;7.416;2022-07-10T06:16:38;3.97;;;2.58;;
11396;SDS011;5754;43.726;7.416;2022-07-10T06:19:12;3.35;;;2.83;;
11396;SDS011;5754;43.726;7.416;2022-07-10T06:21:47;3.47;;;2.72;;
11396;SDS011;5754;43.726;7.416;2022-07-10T06:25:04;4.53;;;2.70;;
11396;SDS011;5754;43.726;7.416;2022-07-10T06:27:39;3.47;;;2.60;;
11396;SDS011;5754;43.726;7.416;2022-07-10T06:30:14;3.28;;;2.33;;
11396;SDS011;5754;43.726;7.416;2022-07-10T06:32:49;5.55;;;2.60;;
11396;SDS011;5754;43.726;7.416;2022-07-10T06:35:23;6.20;;;2.62;;
11396;SDS011;5754;43.726;7.416;2022-07-10T06:37:58;2.58;;;2.37;;
11396;SDS011;5754;43.726;7.416;2022-07-10T06:40:35;3.95;;;2.80;;
11396;SDS011;5754;43.726;7.416;2022-07-10T06:43:10;4.47;;;2.53;;
11396;SDS011;5754;43.726;7.416;2022-07-10T06:45:44;5.70;;;2.60;;
11396;SDS011;5754;43.726;7.416;2022-07-10T06:48:19;4.45;;;2.45;;
11396;SDS011;5754;43.726;7.416;2022-07-10T06:50:53;5.22;;;2.55;;
11396;SDS011;5754;43.726;7.416;2022-07-10T06:53:28;4.78;;;2.40;;
11396;SDS011;5754;43.726;7.416;2022-07-10T06:56:03;2.35;;;2.15;;
11396;SDS011;5754;43.726;7.416;2022-07-10T06:58:38;3.67;;;2.53;;
11396;SDS011;5754;43.726;7.416;2022-07-10T07:01:12;4.22;;;2.50;;
11396;SDS011;5754;43.726;7.416;2022-07-10T07:03:49;3.20;;;2.35;;
11396;SDS011;5754;43.726;7.416;2022-07-10T07:06:23;3.17;;;1.90;;
11396;SDS011;5754;43.726;7.416;2022-07-10T07:08:57;3.58;;;2.37;;
11396;SDS011;5754;43.726;7.416;2022-07-10T07:11:32;3.87;;;2.60;;
11396;SDS011;5754;43.726;7.416;2022-07-10T07:14:07;3.40;;;3.10;;
11396;SDS011;5754;43.726;7.416;2022-07-10T07:16:41;4.65;;;2.15;;
11396;SDS011;5754;43.726;7.416;2022-07-10T07:19:16;2.35;;;1.92;;
11396;SDS011;5754;43.726;7.416;2022-07-10T07:21:51;3.70;;;1.98;;
11396;SDS011;5754;43.726;7.416;2022-07-10T07:24:45;2.22;;;1.80;;
11396;SDS011;5754;43.726;7.416;2022-07-10T07:27:19;3.67;;;2.25;;
11396;SDS011;5754;43.726;7.416;2022-07-10T07:29:54;2.78;;;2.00;;
11396;SDS011;5754;43.726;7.416;2022-07-10T07:32:29;3.08;;;2.17;;
11396;SDS011;5754;43.726;7.416;2022-07-10T07:35:03;3.83;;;1.90;;
11396;SDS011;5754;43.726;7.416;2022-07-10T07:37:39;3.47;;;2.00;;
11396;SDS011;5754;43.726;7.416;2022-07-10T07:40:15;2.75;;;1.73;;
11396;SDS011;5754;43.726;7.416;2022-07-10T07:42:50;2.55;;;1.83;;
11396;SDS011;5754;43.726;7.416;2022-07-10T07:45:25;4.05;;;2.10;;
11396;SDS011;5754;43.726;7.416;2022-07-10T07:48:00;4.62;;;1.70;;
11396;SDS011;5754;43.726;7.416;2022-07-10T07:50:35;2.25;;;1.80;;
11396;SDS011;5754;43.726;7.416;2022-07-10T07:53:11;3.42;;;1.92;;
11396;SDS011;5754;43.726;7.416;2022-07-10T07:55:45;5.85;;;1.85;;
11396;SDS011;5754;43.726;7.416;2022-07-10T07:58:22;4.68;;;1.85;;
11396;SDS011;5754;43.726;7.416;2022-07-10T08:00:57;3.45;;;1.73;;
11396;SDS011;5754;43.726;7.416;2022-07-10T08:03:32;1.60;;;1.50;;
11396;SDS011;5754;43.726;7.416;2022-07-10T08:06:23;4.97;;;1.67;;
11396;SDS011;5754;43.726;7.416;2022-07-10T08:08:57;2.55;;;1.83;;
11396;SDS011;5754;43.726;7.416;2022-07-10T08:11:32;4.30;;;1.73;;
11396;SDS011;5754;43.726;7.416;2022-07-10T08:14:06;3.65;;;1.70;;
11396;SDS011;5754;43.726;7.416;2022-07-10T08:16:41;3.15;;;1.60;;
11396;SDS011;5754;43.726;7.416;2022-07-10T08:19:15;3.30;;;1.80;;
11396;SDS011;5754;43.726;7.416;2022-07-10T08:21:50;3.25;;;1.62;;
11396;SDS011;5754;43.726;7.416;2022-07-10T08:24:25;3.33;;;1.70;;
11396;SDS011;5754;43.726;7.416;2022-07-10T08:26:59;4.10;;;1.87;;
11396;SDS011;5754;43.726;7.416;2022-07-10T08:29:34;2.10;;;1.58;;
11396;SDS011;5754;43.726;7.416;2022-07-10T08:32:08;4.35;;;1.80;;
11396;SDS011;5754;43.726;7.416;2022-07-10T08:34:43;1.65;;;1.55;;
11396;SDS011;5754;43.726;7.416;2022-07-10T08:37:18;2.20;;;1.70;;
11396;SDS011;5754;43.726;7.416;2022-07-10T08:39:53;2.70;;;1.90;;
11396;SDS011;5754;43.726;7.416;2022-07-10T08:42:27;2.22;;;2.00;;
11396;SDS011;5754;43.726;7.416;2022-07-10T08:45:03;2.35;;;1.62;;
11396;SDS011;5754;43.726;7.416;2022-07-10T08:47:37;5.05;;;1.73;;
11396;SDS011;5754;43.726;7.416;2022-07-10T08:50:23;2.95;;;1.85;;
11396;SDS011;5754;43.726;7.416;2022-07-10T08:53:01;5.55;;;2.10;;
11396;SDS011;5754;43.726;7.416;2022-07-10T08:55:39;4.43;;;1.75;;
11396;SDS011;5754;43.726;7.416;2022-07-10T08:58:13;3.17;;;1.62;;
11396;SDS011;5754;43.726;7.416;2022-07-10T09:00:48;3.70;;;1.90;;
11396;SDS011;5754;43.726;7.416;2022-07-10T09:03:22;3.75;;;1.85;;
11396;SDS011;5754;43.726;7.416;2022-07-10T09:05:57;2.15;;;1.52;;
11396;SDS011;5754;43.726;7.416;2022-07-10T09:08:32;2.25;;;1.80;;
11396;SDS011;5754;43.726;7.416;2022-07-10T09:11:17;3.12;;;1.90;;
11396;SDS011;5754;43.726;7.416;2022-07-10T09:13:53;2.70;;;1.85;;
11396;SDS011;5754;43.726;7.416;2022-07-10T09:16:31;5.65;;;1.80;;
11396;SDS011;5754;43.726;7.416;2022-07-10T09:23:32;5.47;;;2.35;;
11396;SDS011;5754;43.726;7.416;2022-07-10T09:26:07;3.47;;;1.62;;
11396;SDS011;5754;43.726;7.416;2022-07-10T09:28:41;2.55;;;2.00;;
11396;SDS011;5754;43.726;7.416;2022-07-10T09:31:16;5.93;;;2.30;;
11396;SDS011;5754;43.726;7.416;2022-07-10T09:33:50;2.62;;;1.90;;
11396;SDS011;5754;43.726;7.416;2022-07-10T09:36:24;4.20;;;1.90;;
11396;SDS011;5754;43.726;7.416;2022-07-10T09:38:59;3.92;;;1.77;;
11396;SDS011;5754;43.726;7.416;2022-07-10T09:41:33;2.97;;;1.85;;
11396;SDS011;5754;43.726;7.416;2022-07-10T09:44:08;7.78;;;2.10;;
11396;SDS011;5754;43.726;7.416;2022-07-10T09:46:44;4.60;;;1.70;;
11396;SDS011;5754;43.726;7.416;2022-07-10T09:49:18;7.82;;;2.00;;
11396;SDS011;5754;43.726;7.416;2022-07-10T09:51:53;3.53;;;1.87;;
11396;SDS011;5754;43.726;7.416;2022-07-10T09:54:27;3.47;;;1.80;;
11396;SDS011;5754;43.726;7.416;2022-07-10T09:57:02;4.12;;;1.75;;
11396;SDS011;5754;43.726;7.416;2022-07-10T09:59:38;3.87;;;2.83;;
11396;SDS011;5754;43.726;7.416;2022-07-10T10:02:13;3.55;;;1.70;;
11396;SDS011;5754;43.726;7.416;2022-07-10T10:04:48;3.03;;;1.75;;
11396;SDS011;5754;43.726;7.416;2022-07-10T10:07:23;4.90;;;1.90;;
11396;SDS011;5754;43.726;7.416;2022-07-10T10:09:58;4.78;;;2.00;;
11396;SDS011;5754;43.726;7.416;2022-07-10T10:12:42;2.42;;;1.70;;
11396;SDS011;5754;43.726;7.416;2022-07-10T10:15:16;2.45;;;1.65;;
11396;SDS011;5754;43.726;7.416;2022-07-10T10:17:52;5.65;;;1.73;;
11396;SDS011;5754;43.726;7.416;2022-07-10T10:20:26;3.28;;;1.95;;
11396;SDS011;5754;43.726;7.416;2022-07-10T10:23:21;3.37;;;2.00;;
11396;SDS011;5754;43.726;7.416;2022-07-10T10:25:56;2.75;;;1.70;;
11396;SDS011;5754;43.726;7.416;2022-07-10T10:28:31;2.95;;;1.98;;
11396;SDS011;5754;43.726;7.416;2022-07-10T10:31:08;3.62;;;1.90;;
11396;SDS011;5754;43.726;7.416;2022-07-10T10:33:44;2.95;;;1.80;;
11396;SDS011;5754;43.726;7.416;2022-07-10T10:37:01;3.95;;;1.58;;
11396;SDS011;5754;43.726;7.416;2022-07-10T10:39:51;5.05;;;1.83;;
11396;SDS011;5754;43.726;7.416;2022-07-10T10:42:37;4.90;;;1.95;;
11396;SDS011;5754;43.726;7.416;2022-07-10T10:49:03;3.62;;;2.05;;
11396;SDS011;5754;43.726;7.416;2022-07-10T10:51:57;2.70;;;1.67;;
11396;SDS011;5754;43.726;7.416;2022-07-10T10:59:09;3.37;;;1.98;;
11396;SDS011;5754;43.726;7.416;2022-07-10T11:01:44;3.65;;;2.28;;
11396;SDS011;5754;43.726;7.416;2022-07-10T11:04:18;4.80;;;2.30;;
11396;SDS011;5754;43.726;7.416;2022-07-10T11:06:52;5.00;;;1.98;;
11396;SDS011;5754;43.726;7.416;2022-07-10T11:09:28;6.22;;;1.92;;
11396;SDS011;5754;43.726;7.416;2022-07-10T11:12:03;2.35;;;1.80;;
11396;SDS011;5754;43.726;7.416;2022-07-10T11:14:39;2.28;;;1.80;;
11396;SDS011;5754;43.726;7.416;2022-07-10T11:17:16;3.47;;;1.83;;
11396;SDS011;5754;43.726;7.416;2022-07-10T11:22:43;2.92;;;1.75;;
11396;SDS011;5754;43.726;7.416;2022-07-10T11:25:41;2.17;;;1.90;;
11396;SDS011;5754;43.726;7.416;2022-07-10T11:28:23;4.47;;;2.03;;
11396;SDS011;5754;43.726;7.416;2022-07-10T11:31:00;3.08;;;1.95;;
11396;SDS011;5754;43.726;7.416;2022-07-10T11:33:40;2.22;;;2.03;;
11396;SDS011;5754;43.726;7.416;2022-07-10T11:36:23;2.90;;;2.10;;
11396;SDS011;5754;43.726;7.416;2022-07-10T11:39:07;2.87;;;1.95;;
11396;SDS011;5754;43.726;7.416;2022-07-10T11:41:43;1.75;;;1.65;;
11396;SDS011;5754;43.726;7.416;2022-07-10T11:44:19;3.37;;;1.52;;
11396;SDS011;5754;43.726;7.416;2022-07-10T11:46:54;1.80;;;1.70;;
11396;SDS011;5754;43.726;7.416;2022-07-10T11:49:30;2.33;;;1.60;;
11396;SDS011;5754;43.726;7.416;2022-07-10T11:52:07;3.95;;;1.83;;
11396;SDS011;5754;43.726;7.416;2022-07-10T11:54:41;4.10;;;1.70;;
11396;SDS011;5754;43.726;7.416;2022-07-10T11:57:18;2.83;;;1.55;;
11396;SDS011;5754;43.726;7.416;2022-07-10T11:59:52;3.25;;;1.70;;
11396;SDS011;5754;43.726;7.416;2022-07-10T12:02:27;2.70;;;1.55;;
11396;SDS011;5754;43.726;7.416;2022-07-10T12:05:02;2.75;;;1.67;;
11396;SDS011;5754;43.726;7.416;2022-07-10T12:07:39;1.90;;;1.70;;
11396;SDS011;5754;43.726;7.416;2022-07-10T12:10:13;1.67;;;1.55;;
11396;SDS011;5754;43.726;7.416;2022-07-10T12:12:47;3.20;;;1.60;;
11396;SDS011;5754;43.726;7.416;2022-07-10T12:15:32;2.67;;;1.50;;
11396;SDS011;5754;43.726;7.416;2022-07-10T12:18:16;2.97;;;1.62;;
11396;SDS011;5754;43.726;7.416;2022-07-10T12:20:51;2.45;;;1.42;;
11396;SDS011;5754;43.726;7.416;2022-07-10T12:23:26;1.70;;;1.60;;
11396;SDS011;5754;43.726;7.416;2022-07-10T12:26:01;2.95;;;2.00;;
11396;SDS011;5754;43.726;7.416;2022-07-10T12:28:52;2.25;;;1.60;;
11396;SDS011;5754;43.726;7.416;2022-07-10T12:31:31;2.17;;;1.70;;
11396;SDS011;5754;43.726;7.416;2022-07-10T12:34:05;3.67;;;1.62;;
11396;SDS011;5754;43.726;7.416;2022-07-10T12:36:44;2.85;;;1.70;;
11396;SDS011;5754;43.726;7.416;2022-07-10T12:39:20;4.78;;;2.12;;
11396;SDS011;5754;43.726;7.416;2022-07-10T12:42:01;2.58;;;1.70;;
11396;SDS011;5754;43.726;7.416;2022-07-10T12:44:44;5.55;;;1.90;;
11396;SDS011;5754;43.726;7.416;2022-07-10T12:47:22;4.80;;;1.80;;
11396;SDS011;5754;43.726;7.416;2022-07-10T12:50:04;2.62;;;1.65;;
11396;SDS011;5754;43.726;7.416;2022-07-10T12:52:39;2.67;;;1.75;;
11396;SDS011;5754;43.726;7.416;2022-07-10T12:55:14;3.08;;;1.80;;
11396;SDS011;5754;43.726;7.416;2022-07-10T12:57:50;1.92;;;1.65;;
11396;SDS011;5754;43.726;7.416;2022-07-10T13:00:26;2.45;;;1.60;;
11396;SDS011;5754;43.726;7.416;2022-07-10T13:03:05;2.83;;;1.50;;
11396;SDS011;5754;43.726;7.416;2022-07-10T13:05:41;3.87;;;1.73;;
11396;SDS011;5754;43.726;7.416;2022-07-10T13:08:22;2.58;;;1.55;;
11396;SDS011;5754;43.726;7.416;2022-07-10T13:10:58;4.55;;;1.98;;
11396;SDS011;5754;43.726;7.416;2022-07-10T13:13:34;2.65;;;1.60;;
11396;SDS011;5754;43.726;7.416;2022-07-10T13:16:08;2.95;;;1.73;;
11396;SDS011;5754;43.726;7.416;2022-07-10T13:18:45;2.10;;;1.70;;
11396;SDS011;5754;43.726;7.416;2022-07-10T13:21:20;2.78;;;1.70;;
11396;SDS011;5754;43.726;7.416;2022-07-10T13:23:54;2.65;;;1.70;;
11396;SDS011;5754;43.726;7.416;2022-07-10T13:26:29;3.78;;;1.70;;
11396;SDS011;5754;43.726;7.416;2022-07-10T13:29:04;4.00;;;1.70;;
11396;SDS011;5754;43.726;7.416;2022-07-10T13:31:39;6.60;;;1.73;;
11396;SDS011;5754;43.726;7.416;2022-07-10T13:34:14;3.60;;;1.85;;
11396;SDS011;5754;43.726;7.416;2022-07-10T13:36:48;2.58;;;1.75;;
11396;SDS011;5754;43.726;7.416;2022-07-10T13:39:24;3.45;;;1.75;;
11396;SDS011;5754;43.726;7.416;2022-07-10T13:41:58;2.25;;;1.95;;
11396;SDS011;5754;43.726;7.416;2022-07-10T13:44:33;3.03;;;1.92;;
11396;SDS011;5754;43.726;7.416;2022-07-10T13:47:08;2.70;;;1.60;;
11396;SDS011;5754;43.726;7.416;2022-07-10T13:49:42;2.95;;;1.75;;
11396;SDS011;5754;43.726;7.416;2022-07-10T13:52:16;3.17;;;1.60;;
11396;SDS011;5754;43.726;7.416;2022-07-10T13:54:51;2.85;;;1.50;;
11396;SDS011;5754;43.726;7.416;2022-07-10T13:57:25;3.15;;;1.75;;
11396;SDS011;5754;43.726;7.416;2022-07-10T14:00:01;2.37;;;1.85;;
11396;SDS011;5754;43.726;7.416;2022-07-10T14:02:44;3.03;;;1.80;;
11396;SDS011;5754;43.726;7.416;2022-07-10T14:05:19;4.32;;;1.75;;
11396;SDS011;5754;43.726;7.416;2022-07-10T14:07:53;4.18;;;1.90;;
11396;SDS011;5754;43.726;7.416;2022-07-10T14:10:28;4.82;;;2.78;;
11396;SDS011;5754;43.726;7.416;2022-07-10T14:13:02;2.05;;;1.70;;
11396;SDS011;5754;43.726;7.416;2022-07-10T14:15:41;3.30;;;1.70;;
11396;SDS011;5754;43.726;7.416;2022-07-10T14:18:17;3.28;;;2.05;;
11396;SDS011;5754;43.726;7.416;2022-07-10T14:21:08;5.50;;;1.85;;
11396;SDS011;5754;43.726;7.416;2022-07-10T14:23:43;4.10;;;1.90;;
11396;SDS011;5754;43.726;7.416;2022-07-10T14:26:19;2.80;;;1.90;;
11396;SDS011;5754;43.726;7.416;2022-07-10T14:28:54;3.45;;;1.70;;
11396;SDS011;5754;43.726;7.416;2022-07-10T14:31:29;3.00;;;1.95;;
11396;SDS011;5754;43.726;7.416;2022-07-10T14:34:03;4.22;;;1.92;;
11396;SDS011;5754;43.726;7.416;2022-07-10T14:36:38;5.50;;;1.73;;
11396;SDS011;5754;43.726;7.416;2022-07-10T14:39:15;4.03;;;2.00;;
11396;SDS011;5754;43.726;7.416;2022-07-10T14:41:50;3.33;;;1.90;;
11396;SDS011;5754;43.726;7.416;2022-07-10T14:44:24;3.75;;;2.05;;
11396;SDS011;5754;43.726;7.416;2022-07-10T14:46:59;4.50;;;1.92;;
11396;SDS011;5754;43.726;7.416;2022-07-10T14:49:35;5.80;;;1.90;;
11396;SDS011;5754;43.726;7.416;2022-07-10T14:52:10;1.98;;;1.65;;
11396;SDS011;5754;43.726;7.416;2022-07-10T14:54:46;3.17;;;1.75;;
11396;SDS011;5754;43.726;7.416;2022-07-10T14:57:23;6.00;;;1.90;;
11396;SDS011;5754;43.726;7.416;2022-07-10T14:59:57;3.22;;;1.65;;
11396;SDS011;5754;43.726;7.416;2022-07-10T15:02:32;4.65;;;2.10;;
11396;SDS011;5754;43.726;7.416;2022-07-10T15:05:06;4.10;;;2.00;;
11396;SDS011;5754;43.726;7.416;2022-07-10T15:07:41;4.25;;;1.80;;
11396;SDS011;5754;43.726;7.416;2022-07-10T15:10:15;1.87;;;1.52;;
11396;SDS011;5754;43.726;7.416;2022-07-10T15:12:52;4.05;;;1.80;;
11396;SDS011;5754;43.726;7.416;2022-07-10T15:15:26;3.50;;;1.90;;
11396;SDS011;5754;43.726;7.416;2022-07-10T15:18:01;5.05;;;1.90;;
11396;SDS011;5754;43.726;7.416;2022-07-10T15:20:35;4.60;;;1.77;;
11396;SDS011;5754;43.726;7.416;2022-07-10T15:23:10;3.00;;;1.73;;
11396;SDS011;5754;43.726;7.416;2022-07-10T15:25:44;2.03;;;1.70;;
11396;SDS011;5754;43.726;7.416;2022-07-10T15:28:19;3.30;;;1.73;;
11396;SDS011;5754;43.726;7.416;2022-07-10T15:30:56;3.92;;;1.90;;
11396;SDS011;5754;43.726;7.416;2022-07-10T15:33:30;3.10;;;1.70;;
11396;SDS011;5754;43.726;7.416;2022-07-10T15:36:05;3.42;;;1.92;;
11396;SDS011;5754;43.726;7.416;2022-07-10T15:38:39;4.85;;;1.90;;
11396;SDS011;5754;43.726;7.416;2022-07-10T15:41:14;2.83;;;1.65;;
11396;SDS011;5754;43.726;7.416;2022-07-10T15:43:48;4.30;;;2.12;;
11396;SDS011;5754;43.726;7.416;2022-07-10T15:46:22;3.83;;;2.00;;
11396;SDS011;5754;43.726;7.416;2022-07-10T15:48:58;6.07;;;1.92;;
11396;SDS011;5754;43.726;7.416;2022-07-10T15:51:33;5.62;;;2.00;;
11396;SDS011;5754;43.726;7.416;2022-07-10T15:54:07;2.80;;;1.70;;
11396;SDS011;5754;43.726;7.416;2022-07-10T15:56:41;3.15;;;1.70;;
11396;SDS011;5754;43.726;7.416;2022-07-10T15:59:17;6.12;;;3.17;;
11396;SDS011;5754;43.726;7.416;2022-07-10T16:01:56;5.75;;;2.90;;
11396;SDS011;5754;43.726;7.416;2022-07-10T16:04:32;3.92;;;2.12;;
11396;SDS011;5754;43.726;7.416;2022-07-10T16:07:06;2.30;;;1.60;;
11396;SDS011;5754;43.726;7.416;2022-07-10T16:09:40;4.32;;;1.80;;
11396;SDS011;5754;43.726;7.416;2022-07-10T16:12:14;3.42;;;1.60;;